Wanamingo, Minnesota
Current Conditions -  °F | °C
As of 6:34 AM on Monday 20 Oct 2014 (Local Time) from KSYN Reporting Station
Clear Clear  
Wind Chill: 43°   Ceiling: Unl
Heat Index: 43°   Visibility: 10mi
Dew Point: 39°   Wind: 3mph
Humidity: 86%   Direction: 240°WSW
Pressure: 29.94"   Gusts: NA
Location:  44.3°N, 92.79°W
Report Text: KSYN 201134Z AUTO 24003KT 10SM CLR 06/04 A2994 RMK AO2 T00620041
Loading
Personal Weather Stations






























Interactive Weather Map
Tropical Storm Tracking
New forecast layout! Learn more

10-Day Weather Forecast

Advertisements
Track Severe Weather on mobile